createdAt,value
2023-03-10T00:01:25.140Z,99766.25
2023-03-10T00:03:53.189Z,99769.97
2023-03-10T00:06:23.700Z,99766.69
2023-03-10T00:08:52.213Z,99759.78
2023-03-10T00:11:21.304Z,99752.44
2023-03-10T00:13:49.698Z,99754.66
2023-03-10T00:16:22.225Z,99767.50
2023-03-10T00:18:50.415Z,99710.91
2023-03-10T00:21:21.827Z,99771.78
2023-03-10T00:23:50.113Z,99775.69
2023-03-10T00:26:20.492Z,99780.22
2023-03-10T00:28:49.225Z,99775.16
2023-03-10T00:31:24.001Z,99769.91
2023-03-10T00:33:53.126Z,99786.09
2023-03-10T00:36:23.176Z,99775.50
2023-03-10T00:38:52.124Z,99786.53
2023-03-10T00:41:22.385Z,99784.03
2023-03-10T00:43:50.881Z,99758.13
2023-03-10T00:46:21.358Z,99792.63
2023-03-10T00:48:49.703Z,99794.41
2023-03-10T00:51:18.514Z,99800.81
2023-03-10T00:53:47.610Z,99786.78
2023-03-10T00:56:17.735Z,99784.63
2023-03-10T00:58:46.924Z,99781.81
2023-03-10T01:01:16.971Z,99792.03
2023-03-10T01:03:47.050Z,99795.69
2023-03-10T01:06:15.430Z,99788.94
2023-03-10T01:08:43.750Z,99790.28
2023-03-10T01:11:14.404Z,99789.38
2023-03-10T01:13:42.886Z,99796.00
2023-03-10T01:16:11.398Z,99787.00
2023-03-10T01:18:40.157Z,99790.25
2023-03-10T01:21:18.138Z,99791.72
2023-03-10T01:23:46.710Z,99796.81
2023-03-10T01:26:17.240Z,99790.78
2023-03-10T01:28:47.023Z,99790.53
2023-03-10T01:31:15.862Z,99786.78
2023-03-10T01:33:44.636Z,99781.84
2023-03-10T01:36:16.674Z,99783.19
2023-03-10T01:38:45.357Z,99790.91
2023-03-10T01:41:13.780Z,99811.75
2023-03-10T01:43:42.929Z,99800.00
2023-03-10T01:46:43.098Z,99797.63
2023-03-10T01:49:17.940Z,99804.44
2023-03-10T01:51:50.129Z,99805.06
2023-03-10T01:54:22.592Z,99819.84
2023-03-10T01:56:52.209Z,99804.81
2023-03-10T01:59:22.284Z,99807.34
2023-03-10T02:01:51.822Z,99802.34
2023-03-10T02:04:24.099Z,99804.03
2023-03-10T02:06:53.617Z,99803.19
2023-03-10T02:09:22.867Z,99807.03
2023-03-10T02:11:51.103Z,99806.88
2023-03-10T02:14:19.832Z,99796.53
2023-03-10T02:16:48.035Z,99790.28
2023-03-10T02:19:31.033Z,99805.94
2023-03-10T02:22:06.233Z,99802.94
2023-03-10T02:24:42.678Z,99762.59
2023-03-10T02:27:18.371Z,99799.22
2023-03-10T02:29:58.815Z,99814.91
2023-03-10T02:32:28.722Z,99811.47
2023-03-10T02:34:56.869Z,99815.69
2023-03-10T02:37:27.308Z,99818.84
2023-03-10T02:39:55.565Z,99811.34
2023-03-10T02:42:27.960Z,99816.81
2023-03-10T02:44:57.076Z,99809.47
2023-03-10T02:47:25.558Z,99825.81
2023-03-10T02:49:53.899Z,99829.03
2023-03-10T02:52:30.557Z,99812.38
2023-03-10T02:54:59.043Z,99804.03
2023-03-10T02:57:29.489Z,99819.38
2023-03-10T02:59:57.724Z,99820.31
2023-03-10T03:02:25.913Z,99822.28
2023-03-10T03:04:54.293Z,99827.38
2023-03-10T03:07:22.418Z,99823.22
2023-03-10T03:09:50.533Z,99823.31
2023-03-10T03:12:18.538Z,99834.63
2023-03-10T03:14:49.090Z,99838.66
2023-03-10T03:17:17.517Z,99843.56
2023-03-10T03:19:45.869Z,99828.41
2023-03-10T03:22:14.150Z,99839.41
2023-03-10T03:24:42.185Z,99825.09
2023-03-10T03:27:10.519Z,99840.34
2023-03-10T03:29:38.664Z,99835.13
2023-03-10T03:32:09.835Z,99836.28
2023-03-10T03:34:37.970Z,99811.31
2023-03-10T03:37:05.983Z,99839.41
2023-03-10T03:39:34.135Z,99845.81
2023-03-10T03:42:02.229Z,99827.56
2023-03-10T03:44:30.276Z,99836.19
2023-03-10T03:46:59.144Z,99829.44
2023-03-10T03:49:29.094Z,99830.28
2023-03-10T03:51:57.074Z,99817.72
2023-03-10T03:54:25.308Z,99809.84
2023-03-10T03:56:53.398Z,99798.84
2023-03-10T03:59:21.468Z,99806.84
2023-03-10T04:01:49.683Z,99804.66
2023-03-10T04:04:17.732Z,99807.34
2023-03-10T04:06:47.287Z,99805.88
2023-03-10T04:09:15.806Z,99804.22
2023-03-10T04:11:43.912Z,99793.22
2023-03-10T04:14:12.520Z,99795.81
2023-03-10T04:16:40.587Z,99791.44
2023-03-10T04:19:08.846Z,99792.28
2023-03-10T04:21:37.374Z,99785.78
2023-03-10T04:24:08.130Z,99798.84
2023-03-10T04:26:36.578Z,99803.47
2023-03-10T04:29:04.968Z,99794.41
2023-03-10T04:31:33.128Z,99799.59
2023-03-10T04:34:01.444Z,99806.19
2023-03-10T04:36:29.500Z,99808.19
2023-03-10T04:38:58.005Z,99814.28
2023-03-10T04:41:27.867Z,99811.59
2023-03-10T04:43:55.971Z,99820.81
2023-03-10T04:46:24.174Z,99822.59
2023-03-10T04:48:53.192Z,99810.34
2023-03-10T04:51:21.218Z,99824.66
2023-03-10T04:53:49.386Z,99794.25
2023-03-10T04:56:17.502Z,99825.91
2023-03-10T04:58:47.207Z,99828.94
2023-03-10T05:01:17.204Z,99829.22
2023-03-10T05:03:45.772Z,99816.38
2023-03-10T05:06:15.861Z,99813.56
2023-03-10T05:08:44.228Z,99829.63
2023-03-10T05:11:12.644Z,99831.50
2023-03-10T05:13:41.310Z,99831.41
2023-03-10T05:16:16.578Z,99829.84
2023-03-10T05:18:44.808Z,99832.78
2023-03-10T05:21:13.041Z,99828.81
2023-03-10T05:23:41.350Z,99834.53
2023-03-10T05:26:13.609Z,99811.28
2023-03-10T05:28:41.832Z,99830.59
2023-03-10T05:31:12.009Z,99842.19
2023-03-10T05:33:42.390Z,99835.44
2023-03-10T05:36:13.319Z,99834.41
2023-03-10T05:38:41.475Z,99826.81
2023-03-10T05:41:10.379Z,99808.31
2023-03-10T05:43:39.456Z,99822.06
2023-03-10T05:46:08.512Z,99837.34
2023-03-10T05:48:36.584Z,99841.97
2023-03-10T05:51:08.391Z,99840.03
2023-03-10T05:53:37.347Z,99838.56
2023-03-10T05:56:10.680Z,99835.09
2023-03-10T05:58:39.321Z,99832.94
2023-03-10T06:01:07.810Z,99846.09
2023-03-10T06:03:36.834Z,99838.78
2023-03-10T06:06:07.984Z,99833.56
2023-03-10T06:08:35.950Z,99845.09
2023-03-10T06:11:04.078Z,99842.38
2023-03-10T06:13:33.198Z,99835.59
2023-03-10T06:16:04.404Z,99842.28
2023-03-10T06:18:32.662Z,99840.81
2023-03-10T06:21:00.694Z,99846.91
2023-03-10T06:23:30.079Z,99842.81
2023-03-10T06:25:59.067Z,99850.97
2023-03-10T06:28:27.648Z,99843.41
2023-03-10T06:30:56.220Z,99842.88
2023-03-10T06:33:24.646Z,99855.25
2023-03-10T06:35:53.143Z,99859.19
2023-03-10T06:38:21.262Z,99859.59
2023-03-10T06:40:50.636Z,99853.63
2023-03-10T06:43:18.755Z,99850.00
2023-03-10T06:45:48.034Z,99856.59
2023-03-10T06:48:16.593Z,99864.13
2023-03-10T06:50:48.002Z,99867.81
2023-03-10T06:53:17.654Z,99865.25
2023-03-10T06:55:45.913Z,99869.16
2023-03-10T06:58:15.326Z,99860.97
2023-03-10T07:00:43.805Z,99870.09
2023-03-10T07:03:13.005Z,99866.97
2023-03-10T07:05:41.204Z,99871.94
2023-03-10T07:08:09.585Z,99865.91
2023-03-10T07:10:37.660Z,99843.06
2023-03-10T07:13:05.846Z,99854.72
2023-03-10T07:15:37.091Z,99864.03
2023-03-10T07:18:06.292Z,99862.94
2023-03-10T07:20:34.401Z,99850.19
2023-03-10T07:23:02.787Z,99856.34
2023-03-10T07:25:31.249Z,99860.59
2023-03-10T07:27:59.398Z,99857.41
2023-03-10T07:30:27.464Z,99849.41
2023-03-10T07:32:57.308Z,99846.22
2023-03-10T07:35:25.287Z,99847.25
2023-03-10T07:37:53.345Z,99816.59
2023-03-10T07:40:24.997Z,99835.16
2023-03-10T07:42:54.854Z,99836.91
2023-03-10T07:45:23.016Z,99830.84
2023-03-10T07:47:52.401Z,99836.31
2023-03-10T07:50:22.712Z,99826.78
2023-03-10T07:52:50.940Z,99825.75
2023-03-10T07:55:19.632Z,99819.09
2023-03-10T07:57:47.804Z,99827.34
2023-03-10T08:00:16.766Z,99827.06
2023-03-10T08:02:44.883Z,99826.06
2023-03-10T08:05:15.027Z,99822.53
2023-03-10T08:07:45.052Z,99802.03
2023-03-10T08:10:14.112Z,99810.00
2023-03-10T08:12:42.042Z,99794.09
2023-03-10T08:15:11.320Z,99807.91
2023-03-10T08:17:39.563Z,99798.72
2023-03-10T08:20:08.796Z,99799.50
2023-03-10T08:22:36.950Z,99809.84
2023-03-10T08:25:07.662Z,99775.50
2023-03-10T08:27:35.804Z,99801.06
2023-03-10T08:30:04.031Z,99791.63
2023-03-10T08:32:34.188Z,99795.75
2023-03-10T08:35:02.340Z,99797.81
2023-03-10T08:37:30.356Z,99787.88
2023-03-10T08:39:59.653Z,99792.56
2023-03-10T08:42:29.244Z,99785.41
2023-03-10T08:44:57.605Z,99806.31
2023-03-10T08:47:28.556Z,99791.03
2023-03-10T08:49:57.442Z,99802.69
2023-03-10T08:52:25.578Z,99799.97
2023-03-10T08:54:54.016Z,99797.53
2023-03-10T08:57:22.356Z,99782.22
2023-03-10T08:59:52.921Z,99754.97
2023-03-10T09:02:22.242Z,99785.50
2023-03-10T09:04:51.442Z,99782.13
2023-03-10T09:07:19.640Z,99788.72
2023-03-10T09:09:47.676Z,99782.03
2023-03-10T09:12:15.802Z,99783.66
2023-03-10T09:14:43.761Z,99777.25
2023-03-10T09:17:13.333Z,99765.41
2023-03-10T09:19:41.299Z,99768.34
2023-03-10T09:22:09.348Z,99772.25
2023-03-10T09:24:37.291Z,99762.25
2023-03-10T09:27:05.467Z,99763.38
2023-03-10T09:29:42.979Z,99762.34
2023-03-10T09:32:13.485Z,99749.66
2023-03-10T09:34:41.788Z,99741.50
2023-03-10T09:37:10.100Z,99730.63
2023-03-10T09:39:38.075Z,99730.25
2023-03-10T09:42:37.482Z,99731.03
2023-03-10T09:45:17.738Z,99727.34
2023-03-10T09:48:00.438Z,99721.88
2023-03-10T09:50:35.260Z,99720.69
2023-03-10T09:53:09.000Z,99703.47
2023-03-10T09:55:42.380Z,99708.88
2023-03-10T09:58:21.975Z,99696.28
2023-03-10T10:00:50.299Z,99687.03
2023-03-10T10:03:22.505Z,99690.66
2023-03-10T10:05:53.558Z,99681.78
2023-03-10T10:08:28.068Z,99674.94
2023-03-10T10:10:58.092Z,99667.38
2023-03-10T10:13:29.875Z,99669.31
2023-03-10T10:16:21.288Z,99677.31
2023-03-10T10:18:59.573Z,99676.38
2023-03-10T10:21:42.765Z,99674.19
2023-03-10T10:24:11.247Z,99669.81
2023-03-10T10:26:39.191Z,99669.34
2023-03-10T10:29:17.218Z,99668.72
2023-03-10T10:32:04.212Z,99655.88
2023-03-10T10:34:34.519Z,99654.59
2023-03-10T10:37:02.611Z,99652.50
2023-03-10T10:39:33.388Z,99639.84
2023-03-10T10:42:14.662Z,99632.38
2023-03-10T10:44:44.194Z,99635.72
2023-03-10T10:47:26.778Z,99636.41
2023-03-10T10:49:56.871Z,99640.47
2023-03-10T10:52:26.781Z,99631.47
2023-03-10T10:54:57.690Z,99649.03
2023-03-10T10:57:30.232Z,99633.81
2023-03-10T11:00:15.334Z,99631.72
2023-03-10T11:02:43.498Z,99615.44
2023-03-10T11:05:18.621Z,99598.75
2023-03-10T11:07:47.130Z,99606.50
2023-03-10T11:10:16.249Z,99602.13
2023-03-10T11:12:57.184Z,99594.69
2023-03-10T11:15:32.233Z,99587.22
2023-03-10T11:18:05.146Z,99582.25
2023-03-10T11:20:45.369Z,99579.03
2023-03-10T11:23:22.060Z,99575.38
2023-03-10T11:25:55.522Z,99566.72
2023-03-10T11:28:36.258Z,99557.06
2023-03-10T11:31:15.305Z,99557.03
2023-03-10T11:33:50.235Z,99552.03
2023-03-10T11:36:31.673Z,99544.34
2023-03-10T11:39:10.278Z,99535.94
2023-03-10T11:41:43.742Z,99536.41
2023-03-10T11:44:22.929Z,99532.66
2023-03-10T11:47:02.022Z,99525.84
2023-03-10T11:49:36.714Z,99524.75
2023-03-10T11:52:13.443Z,99505.50
2023-03-10T11:54:45.684Z,99510.41
2023-03-10T11:57:18.220Z,99498.94
2023-03-10T11:59:52.680Z,99489.59
2023-03-10T12:02:25.780Z,99481.44
2023-03-10T12:05:00.445Z,99486.19
2023-03-10T12:07:32.907Z,99467.09
2023-03-10T12:10:03.926Z,99467.09
2023-03-10T12:12:34.743Z,99461.28
2023-03-10T12:15:06.062Z,99458.22
2023-03-10T12:17:34.254Z,99449.63
2023-03-10T12:20:24.010Z,99447.44
2023-03-10T12:22:54.066Z,99443.16
2023-03-10T12:25:44.718Z,99439.06
2023-03-10T12:28:14.295Z,99431.25
2023-03-10T12:30:46.885Z,99431.69
2023-03-10T12:33:53.573Z,99421.34
2023-03-10T12:36:34.226Z,99408.34
2023-03-10T12:39:31.784Z,99410.53
2023-03-10T12:42:00.732Z,99411.63
2023-03-10T12:44:51.091Z,99397.44
2023-03-10T12:47:35.615Z,99392.84
2023-03-10T12:50:16.596Z,99387.59
2023-03-10T12:52:52.861Z,99402.03
2023-03-10T12:55:25.324Z,99392.13
2023-03-10T12:58:01.270Z,99383.50
2023-03-10T13:00:36.562Z,99380.38
2023-03-10T13:03:14.278Z,99386.56
2023-03-10T13:05:55.574Z,99379.28
2023-03-10T13:08:27.214Z,99367.47
2023-03-10T13:10:57.481Z,99368.56
2023-03-10T13:13:30.696Z,99362.69
2023-03-10T13:15:59.842Z,99349.59
2023-03-10T13:18:28.612Z,99346.03
2023-03-10T13:20:56.618Z,99338.66
2023-03-10T13:23:27.879Z,99335.13
2023-03-10T13:25:58.695Z,99330.84
2023-03-10T13:28:28.488Z,99326.50
2023-03-10T13:31:11.093Z,99322.00
2023-03-10T13:33:50.244Z,99317.47
2023-03-10T13:36:32.312Z,99306.41
2023-03-10T13:39:01.738Z,99302.50
2023-03-10T13:41:37.513Z,99300.91
2023-03-10T13:44:05.674Z,99301.44
2023-03-10T13:46:34.913Z,99300.69
2023-03-10T13:49:06.661Z,99292.72
2023-03-10T13:51:36.430Z,99290.53
2023-03-10T13:54:20.648Z,99278.38
2023-03-10T13:56:52.384Z,99279.00
2023-03-10T13:59:23.958Z,99279.44
2023-03-10T14:01:55.614Z,99275.38
2023-03-10T14:04:42.926Z,99271.63
2023-03-10T14:07:13.160Z,99266.63
2023-03-10T14:09:41.657Z,99268.78
2023-03-10T14:12:12.605Z,99268.53
2023-03-10T14:14:41.796Z,99264.69
2023-03-10T14:17:29.693Z,99261.94
2023-03-10T14:19:57.945Z,99254.25
2023-03-10T14:22:32.264Z,99242.19
2023-03-10T14:25:01.898Z,99243.91
2023-03-10T14:27:35.020Z,99237.47
2023-03-10T14:30:05.882Z,99234.91
2023-03-10T14:32:33.880Z,99234.75
2023-03-10T14:35:02.470Z,99234.72
2023-03-10T14:37:30.479Z,99220.31
2023-03-10T14:39:58.359Z,99222.31
2023-03-10T14:42:31.917Z,99216.69
2023-03-10T14:45:05.002Z,99211.22
2023-03-10T14:47:33.189Z,99208.22
2023-03-10T14:50:02.425Z,99206.47
2023-03-10T14:52:30.470Z,99196.13
2023-03-10T14:55:00.003Z,99215.22
2023-03-10T14:57:28.869Z,99208.50
2023-03-10T14:59:58.354Z,99207.22
2023-03-10T15:02:29.065Z,99212.38
2023-03-10T15:04:57.073Z,99207.56
2023-03-10T15:07:25.170Z,99204.28
2023-03-10T15:10:05.334Z,99209.69
2023-03-10T15:12:39.454Z,99202.22
2023-03-10T15:15:16.764Z,99193.56
2023-03-10T15:17:45.321Z,99193.22
2023-03-10T15:20:18.035Z,99192.28
2023-03-10T15:22:46.585Z,99184.44
2023-03-10T15:25:16.206Z,99183.03
2023-03-10T15:27:44.486Z,99174.78
2023-03-10T15:30:19.762Z,99176.78
2023-03-10T15:32:47.960Z,99171.69
2023-03-10T15:35:16.765Z,99172.88
2023-03-10T15:37:45.316Z,99171.59
2023-03-10T15:40:17.441Z,99160.78
2023-03-10T15:42:46.446Z,99164.59
2023-03-10T15:45:18.312Z,99163.31
2023-03-10T15:47:47.203Z,99164.47
2023-03-10T15:50:16.806Z,99150.75
2023-03-10T15:52:47.433Z,99153.19
2023-03-10T15:55:16.721Z,99153.91
2023-03-10T15:57:45.213Z,99144.63
2023-03-10T16:00:16.937Z,99161.66
2023-03-10T16:02:45.336Z,99155.16
2023-03-10T16:05:13.381Z,99158.63
2023-03-10T16:07:41.416Z,99153.44
2023-03-10T16:10:12.114Z,99164.66
2023-03-10T16:12:40.679Z,99155.00
2023-03-10T16:15:09.988Z,99153.19
2023-03-10T16:17:39.529Z,99168.50
2023-03-10T16:20:12.322Z,99163.75
2023-03-10T16:22:52.436Z,99158.88
2023-03-10T16:25:21.738Z,99177.44
2023-03-10T16:27:50.454Z,99177.16
2023-03-10T16:30:19.817Z,99180.59
2023-03-10T16:32:50.841Z,99170.13
2023-03-10T16:35:19.363Z,99177.53
2023-03-10T16:37:47.704Z,99176.47
2023-03-10T16:40:16.247Z,99172.66
2023-03-10T16:42:45.732Z,99169.72
2023-03-10T16:45:14.176Z,99164.47
2023-03-10T16:47:44.046Z,99159.56
2023-03-10T16:50:14.424Z,99156.28
2023-03-10T16:52:43.612Z,99146.78
2023-03-10T16:55:17.361Z,99136.66
2023-03-10T16:57:46.509Z,99145.50
2023-03-10T17:00:15.793Z,99142.56
2023-03-10T17:02:43.993Z,99158.47
2023-03-10T17:05:15.388Z,99149.78
2023-03-10T17:07:55.110Z,99154.38
2023-03-10T17:10:26.593Z,99146.03
2023-03-10T17:12:54.494Z,99153.25
2023-03-10T17:15:22.668Z,99161.78
2023-03-10T17:17:51.117Z,99166.00
2023-03-10T17:20:21.811Z,99165.69
2023-03-10T17:22:50.175Z,99182.91
2023-03-10T17:25:18.293Z,99175.66
2023-03-10T17:27:46.279Z,99180.25
2023-03-10T17:30:19.094Z,99183.19
2023-03-10T17:32:49.626Z,99183.19
2023-03-10T17:35:18.062Z,99182.53
2023-03-10T17:37:47.419Z,99182.34
2023-03-10T17:40:17.410Z,99174.66
2023-03-10T17:42:45.399Z,99167.44
2023-03-10T17:45:13.519Z,99166.47
2023-03-10T17:47:41.429Z,99162.88
2023-03-10T17:50:10.524Z,99161.53
2023-03-10T17:52:38.586Z,99162.22
2023-03-10T17:55:09.306Z,99157.28
2023-03-10T17:57:39.704Z,99155.63
2023-03-10T18:00:11.722Z,99144.16
2023-03-10T18:02:39.931Z,99146.06
2023-03-10T18:05:08.756Z,99138.34
2023-03-10T18:07:36.798Z,99130.16
2023-03-10T18:10:05.280Z,99129.69
2023-03-10T18:12:34.760Z,99123.28
2023-03-10T18:15:02.800Z,99126.00
2023-03-10T18:17:30.781Z,99120.06
2023-03-10T18:19:58.768Z,99126.31
2023-03-10T18:22:26.894Z,99119.13
2023-03-10T18:24:57.526Z,99118.31
2023-03-10T18:27:25.562Z,99126.66
2023-03-10T18:29:55.222Z,99121.41
2023-03-10T18:32:26.030Z,99113.50
2023-03-10T18:34:54.496Z,99110.41
2023-03-10T18:37:22.935Z,99101.03
2023-03-10T18:39:51.293Z,99101.69
2023-03-10T18:42:21.600Z,99098.88
2023-03-10T18:44:49.978Z,99093.47
2023-03-10T18:47:19.751Z,99089.19
2023-03-10T18:49:48.129Z,99090.75
2023-03-10T18:52:17.053Z,99084.81
2023-03-10T18:54:45.113Z,99074.06
2023-03-10T18:57:13.800Z,99079.75
2023-03-10T18:59:42.986Z,99062.97
2023-03-10T19:02:14.899Z,99066.84
2023-03-10T19:04:47.789Z,99058.00
2023-03-10T19:07:17.565Z,99062.69
2023-03-10T19:09:45.902Z,99061.53
2023-03-10T19:12:13.877Z,99056.56
2023-03-10T19:14:42.172Z,99051.09
2023-03-10T19:17:10.330Z,99047.84
2023-03-10T19:19:38.384Z,99032.34
2023-03-10T19:22:07.772Z,99038.47
2023-03-10T19:24:36.226Z,99041.00
2023-03-10T19:27:04.281Z,99044.22
2023-03-10T19:29:32.693Z,99039.88
2023-03-10T19:32:00.963Z,99036.25
2023-03-10T19:34:28.985Z,99030.94
2023-03-10T19:36:56.924Z,99032.19
2023-03-10T19:39:26.680Z,99025.69
2023-03-10T19:41:54.559Z,99025.00
2023-03-10T19:44:22.886Z,99013.50
2023-03-10T19:46:51.015Z,99015.22
2023-03-10T19:49:18.939Z,99021.53
2023-03-10T19:51:46.823Z,99005.28
2023-03-10T19:54:14.834Z,99010.75
2023-03-10T19:56:44.083Z,99010.94
2023-03-10T19:59:12.111Z,99008.38
2023-03-10T20:01:42.206Z,99005.63
2023-03-10T20:04:11.489Z,99004.50
2023-03-10T20:06:39.401Z,99011.34
2023-03-10T20:09:10.552Z,99001.63
2023-03-10T20:11:39.437Z,98998.91
2023-03-10T20:14:09.462Z,98994.53
2023-03-10T20:16:37.467Z,98979.31
2023-03-10T20:19:05.597Z,98989.56
2023-03-10T20:21:33.598Z,98981.06
2023-03-10T20:24:01.540Z,98983.56
2023-03-10T20:26:29.504Z,98976.97
2023-03-10T20:28:57.473Z,98977.94
2023-03-10T20:31:28.452Z,98976.03
2023-03-10T20:33:56.622Z,98974.25
2023-03-10T20:36:24.570Z,98960.53
2023-03-10T20:38:52.576Z,98962.44
2023-03-10T20:41:21.977Z,98967.84
2023-03-10T20:43:49.937Z,98961.25
2023-03-10T20:46:19.507Z,98957.28
2023-03-10T20:48:51.208Z,98949.63
2023-03-10T20:51:19.438Z,98949.22
2023-03-10T20:53:47.434Z,98948.03
2023-03-10T20:56:16.800Z,98950.22
2023-03-10T20:58:45.046Z,98939.72
2023-03-10T21:01:16.866Z,98941.50
2023-03-10T21:03:44.839Z,98942.31
2023-03-10T21:06:14.183Z,98941.38
2023-03-10T21:08:42.136Z,98939.59
2023-03-10T21:11:10.162Z,98939.19
2023-03-10T21:13:38.115Z,98922.75
2023-03-10T21:16:06.473Z,98936.31
2023-03-10T21:18:34.658Z,98930.28
2023-03-10T21:21:07.147Z,98924.97
2023-03-10T21:23:37.026Z,98913.97
2023-03-10T21:26:11.136Z,98922.38
2023-03-10T21:28:38.824Z,98920.56
2023-03-10T21:31:07.271Z,98904.53
2023-03-10T21:33:35.397Z,98906.59
2023-03-10T21:36:04.373Z,98898.78
2023-03-10T21:38:32.638Z,98900.16
2023-03-10T21:41:02.399Z,98895.09
2023-03-10T21:43:30.398Z,98894.97
2023-03-10T21:45:58.338Z,98891.69
2023-03-10T21:48:26.448Z,98891.97
2023-03-10T21:50:54.436Z,98886.63
2023-03-10T21:53:26.486Z,98882.13
2023-03-10T21:55:55.143Z,98870.31
2023-03-10T21:58:25.026Z,98859.66
2023-03-10T22:00:55.994Z,98861.41
2023-03-10T22:03:24.307Z,98855.84
2023-03-10T22:05:52.659Z,98854.47
2023-03-10T22:08:21.138Z,98849.00
2023-03-10T22:10:49.119Z,98842.66
2023-03-10T22:13:17.123Z,98826.78
2023-03-10T22:15:46.631Z,98829.09
2023-03-10T22:18:15.089Z,98821.03
2023-03-10T22:20:43.465Z,98824.06
2023-03-10T22:23:11.383Z,98833.56
2023-03-10T22:25:39.376Z,98828.91
2023-03-10T22:28:07.786Z,98830.16
2023-03-10T22:30:36.282Z,98832.06
2023-03-10T22:33:07.017Z,98828.78
2023-03-10T22:35:35.078Z,98820.59
2023-03-10T22:38:03.926Z,98822.22
2023-03-10T22:40:32.061Z,98810.47
2023-03-10T22:43:00.145Z,98813.22
2023-03-10T22:45:30.415Z,98824.44
2023-03-10T22:48:00.583Z,98817.84
2023-03-10T22:50:33.032Z,98814.88
2023-03-10T22:53:01.305Z,98811.16
2023-03-10T22:55:34.964Z,98794.38
2023-03-10T22:58:04.566Z,98810.09
2023-03-10T23:00:32.888Z,98820.75
2023-03-10T23:03:01.495Z,98825.56
2023-03-10T23:05:30.887Z,98821.06
2023-03-10T23:07:59.346Z,98816.81
2023-03-10T23:10:29.033Z,98810.34
2023-03-10T23:12:59.515Z,98810.22
2023-03-10T23:15:30.249Z,98805.84
2023-03-10T23:17:58.559Z,98818.97
2023-03-10T23:20:29.194Z,98805.03
2023-03-10T23:23:00.717Z,98800.41
2023-03-10T23:25:31.558Z,98793.81
2023-03-10T23:28:00.561Z,98793.94
2023-03-10T23:30:29.664Z,98800.09
2023-03-10T23:32:57.927Z,98791.91
2023-03-10T23:35:28.085Z,98793.41
2023-03-10T23:37:56.491Z,98789.19
2023-03-10T23:40:28.089Z,98802.44
2023-03-10T23:42:57.468Z,98794.78
2023-03-10T23:45:27.526Z,98789.31
2023-03-10T23:47:58.962Z,98769.91
2023-03-10T23:50:28.741Z,98792.56
2023-03-10T23:52:57.355Z,98765.66
2023-03-10T23:55:29.067Z,98777.25
2023-03-10T23:57:57.068Z,98779.59
